サンフアン の空港の天気 - METARとTAF

ルイス・ムニョス・マリン国際空港 ( TJSJ / SJU ) - プエルトリコ サンフアン
飛行場実況気象(Metar)
観測時間02/17 10:56 AST (02/17 14:56 UTC)
風向・風速不定 2m/s
視程10km以上
天気現象
少しの雲 雲底高度 1040m
全天の4割程度の雲 雲底高度 1830m
気温28.9℃
湿度59%
気圧1019.9hPa
METARTJSJ 171456Z VRB04KT 10SM FEW034 SCT060 29/20 A3012 RMK AO2 SLP199 T02890200 50013
過去の天気等 Google飛行場航空写真 Wunderground天気予報

過去48時間のMETAR

飛行場予報(TAF)
発表時間: 2/17 07:27 AST (2/17 11:27 UTC)
予報対象時間: 17日8時 AST ~ 18日8時 AST
風向・風速不定 2m/s
視程10km以上
天気現象周辺でしゅう雨
少しの雲 雲底高度 850m
全天の4割程度の雲 雲底高度 1830m
17日10時 AST から
風向・風速東北東 8m/s
視程10km以上
少しの雲 雲底高度 910m
17日18時 AST から
風向・風速東 3m/s
視程10km以上
全天の4割程度の雲 雲底高度 910m
TJSJ 171127Z 1712/1812 VRB03KT P6SM VCSH FEW028 SCT060
FM171400 06015KT P6SM FEW030
FM172230 10005KT P6SM SCT030